createdAt,value
2018-08-06T00:02:15.420Z,1.17
2018-08-06T00:04:43.825Z,1.40
2018-08-06T00:07:12.325Z,1.20
2018-08-06T00:09:41.489Z,1.40
2018-08-06T00:12:09.979Z,1.35
2018-08-06T00:14:38.849Z,1.20
2018-08-06T00:17:07.621Z,1.60
2018-08-06T00:19:36.238Z,1.40
2018-08-06T00:22:04.768Z,1.80
2018-08-06T00:24:33.253Z,1.30
2018-08-06T00:27:01.762Z,1.50
2018-08-06T00:29:30.231Z,1.50
2018-08-06T00:31:58.996Z,1.22
2018-08-06T00:34:27.569Z,1.82
2018-08-06T00:36:56.184Z,1.50
2018-08-06T00:39:24.609Z,1.40
2018-08-06T00:41:53.668Z,1.20
2018-08-06T00:44:22.860Z,1.22
2018-08-06T00:46:51.315Z,1.30
2018-08-06T00:49:19.748Z,1.50
2018-08-06T00:51:48.281Z,1.70
2018-08-06T00:54:16.800Z,1.40
2018-08-06T00:56:45.385Z,1.37
2018-08-06T00:59:14.004Z,1.57
2018-08-06T01:01:42.502Z,1.20
2018-08-06T01:04:10.969Z,1.10
2018-08-06T01:06:39.408Z,1.40
2018-08-06T01:09:09.337Z,1.30
2018-08-06T01:11:38.308Z,1.50
2018-08-06T01:14:06.932Z,1.30
2018-08-06T01:16:35.375Z,1.50
2018-08-06T01:19:03.907Z,1.40
2018-08-06T01:21:32.398Z,1.32
2018-08-06T01:24:01.653Z,1.32
2018-08-06T01:26:30.440Z,1.30
2018-08-06T01:28:58.932Z,1.32
2018-08-06T01:31:27.397Z,1.30
2018-08-06T01:33:55.833Z,1.35
2018-08-06T01:36:24.315Z,1.60
2018-08-06T01:38:53.394Z,1.07
2018-08-06T01:41:21.848Z,1.30
2018-08-06T01:43:51.044Z,1.50
2018-08-06T01:46:20.127Z,1.62
2018-08-06T01:48:48.652Z,1.60
2018-08-06T01:51:17.136Z,1.32
2018-08-06T01:53:45.565Z,1.40
2018-08-06T01:56:14.028Z,1.30
2018-08-06T01:58:42.548Z,1.50
2018-08-06T02:01:11.053Z,1.30
2018-08-06T02:03:39.658Z,1.75
2018-08-06T02:06:08.088Z,1.35
2018-08-06T02:08:36.540Z,1.47
2018-08-06T02:11:05.093Z,1.40
2018-08-06T02:13:33.774Z,1.40
2018-08-06T02:16:02.333Z,1.40
2018-08-06T02:18:30.809Z,2.45
2018-08-06T02:20:59.208Z,1.60
2018-08-06T02:23:27.629Z,1.37
2018-08-06T02:25:56.136Z,1.30
2018-08-06T02:28:24.291Z,1.20
2018-08-06T02:30:52.919Z,1.40
2018-08-06T02:33:21.374Z,1.30
2018-08-06T02:35:49.842Z,1.40
2018-08-06T02:38:18.307Z,1.52
2018-08-06T02:40:46.897Z,1.55
2018-08-06T02:43:15.365Z,1.40
2018-08-06T02:45:43.946Z,1.65
2018-08-06T02:48:12.432Z,1.50
2018-08-06T02:50:40.888Z,1.55
2018-08-06T02:53:09.391Z,1.70
2018-08-06T02:55:37.859Z,1.50
2018-08-06T02:58:06.623Z,1.45
2018-08-06T03:00:35.058Z,1.47
2018-08-06T03:03:03.535Z,1.45
2018-08-06T03:05:32.008Z,1.32
2018-08-06T03:08:00.459Z,1.67
2018-08-06T03:10:28.971Z,1.20
2018-08-06T03:12:57.390Z,1.40
2018-08-06T03:15:26.409Z,1.90
2018-08-06T03:17:54.869Z,2.98
2018-08-06T03:20:23.321Z,1.95
2018-08-06T03:22:51.792Z,1.90
2018-08-06T03:25:20.204Z,1.62
2018-08-06T03:27:48.688Z,2.42
2018-08-06T03:30:21.625Z,2.08
2018-08-06T03:32:50.669Z,2.55
2018-08-06T03:35:19.100Z,2.30
2018-08-06T03:37:47.585Z,2.70
2018-08-06T03:40:17.274Z,1.98
2018-08-06T03:42:45.669Z,1.55
2018-08-06T03:45:14.106Z,1.70
2018-08-06T03:47:43.646Z,1.65
2018-08-06T03:50:13.545Z,1.60
2018-08-06T03:52:42.250Z,1.55
2018-08-06T03:55:11.418Z,1.40
2018-08-06T03:57:40.325Z,1.57
2018-08-06T04:00:11.525Z,1.80
2018-08-06T04:02:40.469Z,1.50
2018-08-06T04:05:10.776Z,1.90
2018-08-06T04:07:44.040Z,2.10
2018-08-06T04:10:14.638Z,2.15
2018-08-06T04:12:43.088Z,2.85
2018-08-06T04:15:12.077Z,2.60
2018-08-06T04:17:41.624Z,3.00
2018-08-06T04:20:11.077Z,2.65
2018-08-06T04:22:40.220Z,3.22
2018-08-06T04:25:08.684Z,2.90
2018-08-06T04:27:37.606Z,2.55
2018-08-06T04:30:08.341Z,2.67
2018-08-06T04:32:36.876Z,3.15
2018-08-06T04:35:05.320Z,4.03
2018-08-06T04:37:33.881Z,4.62
2018-08-06T04:40:02.322Z,4.12
2018-08-06T04:42:30.749Z,4.65
2018-08-06T04:44:59.244Z,4.47
2018-08-06T04:47:27.653Z,4.75
2018-08-06T04:49:57.014Z,3.90
2018-08-06T04:52:25.758Z,11.60
2018-08-06T04:54:55.042Z,15.98
2018-08-06T04:57:23.540Z,7.55
2018-08-06T04:59:51.976Z,4.95
2018-08-06T05:02:20.426Z,2.92
2018-08-06T05:04:48.901Z,2.60
2018-08-06T05:07:17.345Z,2.15
2018-08-06T05:09:45.908Z,2.10
2018-08-06T05:12:14.385Z,2.30
2018-08-06T05:14:42.824Z,12.20
2018-08-06T05:17:12.021Z,24.27
2018-08-06T05:19:41.429Z,39.30
2018-08-06T05:22:10.529Z,41.77
2018-08-06T05:24:38.992Z,46.77
2018-08-06T05:27:07.490Z,60.25
2018-08-06T05:29:36.057Z,81.12
2018-08-06T05:32:04.571Z,34.43
2018-08-06T05:34:33.022Z,20.80
2018-08-06T05:37:01.449Z,9.65
2018-08-06T05:39:29.916Z,7.00
2018-08-06T05:41:58.405Z,3.10
2018-08-06T05:44:27.589Z,2.10
2018-08-06T05:46:56.865Z,2.05
2018-08-06T05:49:25.406Z,2.12
2018-08-06T05:51:54.125Z,2.12
2018-08-06T05:54:22.688Z,2.17
2018-08-06T05:56:51.161Z,2.00
2018-08-06T05:59:20.756Z,2.20
2018-08-06T06:01:49.214Z,2.98
2018-08-06T06:04:17.718Z,6.92
2018-08-06T06:06:46.197Z,2.00
2018-08-06T06:09:15.476Z,15.58
2018-08-06T06:11:43.990Z,5.08
2018-08-06T06:14:12.496Z,7.60
2018-08-06T06:16:41.053Z,9.43
2018-08-06T06:19:09.586Z,5.90
2018-08-06T06:21:38.243Z,6.60
2018-08-06T06:24:06.792Z,3.10
2018-08-06T06:26:35.275Z,2.47
2018-08-06T06:29:04.597Z,3.20
2018-08-06T06:31:33.100Z,1.95
2018-08-06T06:34:01.817Z,1.80
2018-08-06T06:36:30.273Z,1.98
2018-08-06T06:38:59.039Z,2.22
2018-08-06T06:41:28.313Z,1.65
2018-08-06T06:43:58.241Z,3.58
2018-08-06T06:46:27.017Z,1.42
2018-08-06T06:48:56.521Z,1.27
2018-08-06T06:51:25.814Z,1.60
2018-08-06T06:53:54.560Z,1.40
2018-08-06T06:56:23.025Z,1.70
2018-08-06T06:58:51.837Z,1.40
2018-08-06T07:01:20.317Z,2.08
2018-08-06T07:03:48.800Z,2.10
2018-08-06T07:06:17.984Z,1.42
2018-08-06T07:08:51.463Z,1.70
2018-08-06T07:11:20.659Z,1.20
2018-08-06T07:13:49.420Z,1.62
2018-08-06T07:16:19.743Z,1.57
2018-08-06T07:18:48.232Z,1.37
2018-08-06T07:21:16.755Z,1.47
2018-08-06T07:23:45.775Z,1.42
2018-08-06T07:26:14.620Z,1.50
2018-08-06T07:28:43.082Z,1.60
2018-08-06T07:31:11.594Z,1.07
2018-08-06T07:33:40.066Z,1.17
2018-08-06T07:36:09.373Z,1.20
2018-08-06T07:38:37.885Z,1.30
2018-08-06T07:41:11.457Z,1.22
2018-08-06T07:43:39.932Z,2.77
2018-08-06T07:46:08.440Z,2.52
2018-08-06T07:48:36.872Z,1.95
2018-08-06T07:51:06.126Z,1.10
2018-08-06T07:53:34.604Z,1.20
2018-08-06T07:56:03.761Z,1.00
2018-08-06T07:58:32.206Z,1.70
2018-08-06T08:01:00.997Z,1.02
2018-08-06T08:03:29.504Z,1.10
2018-08-06T08:05:57.956Z,1.32
2018-08-06T08:08:26.475Z,1.52
2018-08-06T08:10:55.024Z,1.27
2018-08-06T08:13:23.472Z,1.15
2018-08-06T08:15:51.943Z,1.20
2018-08-06T08:18:20.447Z,1.30
2018-08-06T08:20:48.928Z,1.10
2018-08-06T08:23:17.404Z,1.30
2018-08-06T08:25:45.922Z,1.15
2018-08-06T08:28:14.728Z,1.15
2018-08-06T08:30:43.265Z,1.10
2018-08-06T08:33:11.757Z,1.25
2018-08-06T08:35:40.298Z,1.70
2018-08-06T08:38:08.781Z,7.85
2018-08-06T08:40:37.242Z,3.02
2018-08-06T08:43:05.723Z,2.58
2018-08-06T08:45:34.269Z,6.08
2018-08-06T08:48:02.721Z,3.20
2018-08-06T08:50:31.353Z,4.62
2018-08-06T08:52:59.815Z,1.80
2018-08-06T08:55:28.688Z,1.80
2018-08-06T08:57:57.187Z,1.50
2018-08-06T09:00:26.340Z,4.15
2018-08-06T09:02:54.852Z,4.17
2018-08-06T09:05:23.485Z,7.12
2018-08-06T09:07:52.588Z,7.08
2018-08-06T09:10:21.336Z,5.92
2018-08-06T09:12:49.932Z,2.55
2018-08-06T09:15:24.608Z,5.78
2018-08-06T09:17:53.044Z,6.00
2018-08-06T09:20:21.638Z,9.55
2018-08-06T09:22:50.088Z,4.72
2018-08-06T09:25:18.648Z,2.67
2018-08-06T09:27:48.512Z,1.60
2018-08-06T09:30:24.550Z,2.85
2018-08-06T09:32:54.437Z,1.52
2018-08-06T09:35:23.141Z,1.50
2018-08-06T09:37:52.028Z,1.27
2018-08-06T09:40:21.793Z,1.45
2018-08-06T09:42:50.786Z,1.20
2018-08-06T09:45:20.569Z,1.20
2018-08-06T09:47:50.417Z,1.10
2018-08-06T09:50:19.656Z,1.10
2018-08-06T09:52:49.377Z,1.00
2018-08-06T09:55:21.438Z,1.07
2018-08-06T09:57:50.799Z,1.50
2018-08-06T10:00:25.713Z,1.05
2018-08-06T10:02:55.414Z,1.10
2018-08-06T10:05:24.874Z,1.35
2018-08-06T10:07:53.476Z,1.12
2018-08-06T10:10:21.988Z,0.98
2018-08-06T10:12:50.438Z,1.25
2018-08-06T10:15:19.416Z,4.60
2018-08-06T10:17:50.689Z,1.05
2018-08-06T10:20:20.677Z,1.17
2018-08-06T10:22:49.450Z,1.25
2018-08-06T10:25:17.984Z,1.30
2018-08-06T10:27:47.285Z,1.10
2018-08-06T10:30:23.193Z,1.30
2018-08-06T10:32:52.179Z,1.45
2018-08-06T10:35:21.200Z,5.60
2018-08-06T10:37:50.318Z,2.92
2018-08-06T10:40:20.981Z,1.20
2018-08-06T10:42:49.504Z,3.22
2018-08-06T10:45:19.104Z,5.95
2018-08-06T10:47:47.893Z,1.92
2018-08-06T10:50:16.373Z,1.47
2018-08-06T10:52:44.855Z,1.82
2018-08-06T10:55:13.772Z,1.15
2018-08-06T10:57:43.372Z,3.27
2018-08-06T11:00:15.094Z,4.20
2018-08-06T11:02:43.646Z,3.60
2018-08-06T11:05:13.406Z,2.27
2018-08-06T11:07:41.920Z,1.10
2018-08-06T11:10:12.327Z,1.17
2018-08-06T11:12:41.282Z,1.10
2018-08-06T11:15:14.325Z,8.05
2018-08-06T11:17:42.996Z,5.12
2018-08-06T11:20:13.662Z,4.70
2018-08-06T11:22:42.456Z,1.60
2018-08-06T11:25:12.405Z,1.60
2018-08-06T11:27:40.950Z,1.82
2018-08-06T11:30:12.446Z,2.30
2018-08-06T11:32:40.928Z,1.10
2018-08-06T11:35:10.333Z,1.20
2018-08-06T11:37:39.115Z,0.85
2018-08-06T11:40:09.006Z,1.20
2018-08-06T11:42:38.324Z,1.80
2018-08-06T11:45:07.702Z,2.17
2018-08-06T11:47:36.852Z,2.90
2018-08-06T11:50:05.991Z,2.52
2018-08-06T11:52:34.482Z,1.20
2018-08-06T11:55:02.968Z,1.80
2018-08-06T11:57:31.380Z,2.40
2018-08-06T11:59:59.929Z,1.52
2018-08-06T12:02:28.589Z,1.65
2018-08-06T12:04:57.030Z,1.00
2018-08-06T12:07:25.525Z,1.10
2018-08-06T12:09:53.989Z,1.00
2018-08-06T12:12:22.460Z,1.00
2018-08-06T12:14:51.143Z,1.12
2018-08-06T12:17:19.651Z,1.17
2018-08-06T12:19:48.148Z,1.37
2018-08-06T12:22:17.412Z,1.02
2018-08-06T12:24:45.828Z,1.15
2018-08-06T12:27:14.347Z,1.10
2018-08-06T12:29:42.773Z,1.20
2018-08-06T12:32:11.229Z,0.90
2018-08-06T12:34:40.384Z,1.70
2018-08-06T12:37:08.874Z,1.10
2018-08-06T12:39:37.317Z,1.20
2018-08-06T12:42:05.831Z,0.93
2018-08-06T12:44:34.369Z,1.25
2018-08-06T12:47:02.953Z,1.20
2018-08-06T12:49:31.352Z,1.20
2018-08-06T12:51:59.904Z,1.45
2018-08-06T12:54:28.314Z,1.12
2018-08-06T12:56:56.733Z,1.10
2018-08-06T12:59:25.285Z,1.10
2018-08-06T13:01:53.762Z,1.20
2018-08-06T13:04:22.207Z,1.10
2018-08-06T13:06:50.696Z,1.00
2018-08-06T13:09:19.368Z,1.30
2018-08-06T13:11:47.816Z,1.40
2018-08-06T13:14:16.909Z,0.88
2018-08-06T13:16:45.410Z,1.00
2018-08-06T13:19:13.829Z,0.93
2018-08-06T13:21:42.284Z,1.00
2018-08-06T13:24:10.773Z,1.00
2018-08-06T13:26:45.860Z,1.05
2018-08-06T13:29:14.437Z,0.90
2018-08-06T13:31:42.941Z,0.90
2018-08-06T13:34:11.865Z,1.27
2018-08-06T13:36:40.368Z,1.00
2018-08-06T13:39:10.098Z,0.90
2018-08-06T13:41:38.975Z,0.90
2018-08-06T13:44:07.495Z,0.90
2018-08-06T13:46:35.980Z,1.00
2018-08-06T13:49:05.392Z,1.00
2018-08-06T13:51:33.811Z,4.40
2018-08-06T13:54:02.291Z,0.90
2018-08-06T13:56:31.586Z,1.20
2018-08-06T13:59:00.017Z,1.32
2018-08-06T14:01:29.201Z,1.05
2018-08-06T14:03:57.670Z,2.00
2018-08-06T14:06:26.152Z,1.10
2018-08-06T14:08:54.649Z,0.85
2018-08-06T14:11:23.161Z,1.20
2018-08-06T14:13:51.635Z,1.00
2018-08-06T14:16:20.198Z,1.12
2018-08-06T14:18:48.716Z,1.10
2018-08-06T14:21:17.279Z,1.20
2018-08-06T14:23:45.719Z,1.10
2018-08-06T14:26:14.189Z,1.20
2018-08-06T14:28:42.719Z,1.07
2018-08-06T14:31:11.176Z,0.90
2018-08-06T14:33:40.412Z,1.17
2018-08-06T14:36:09.659Z,1.00
2018-08-06T14:38:38.069Z,1.00
2018-08-06T14:41:06.546Z,1.30
2018-08-06T14:43:35.070Z,1.07
2018-08-06T14:46:04.116Z,0.93
2018-08-06T14:48:32.611Z,0.90
2018-08-06T14:51:01.061Z,1.00
2018-08-06T14:53:29.684Z,0.82
2018-08-06T14:55:58.388Z,0.90
2018-08-06T14:58:26.776Z,0.93
2018-08-06T15:00:55.248Z,1.02
2018-08-06T15:03:23.727Z,1.07
2018-08-06T15:05:52.161Z,0.90
2018-08-06T15:08:21.261Z,0.95
2018-08-06T15:10:49.742Z,0.90
2018-08-06T15:13:18.209Z,1.00
2018-08-06T15:15:47.270Z,0.80
2018-08-06T15:18:15.705Z,0.90
2018-08-06T15:20:44.148Z,0.90
2018-08-06T15:23:13.405Z,0.80
2018-08-06T15:25:41.902Z,0.85
2018-08-06T15:28:14.334Z,0.90
2018-08-06T15:30:43.817Z,1.00
2018-08-06T15:33:12.336Z,0.98
2018-08-06T15:35:40.798Z,0.93
2018-08-06T15:38:09.246Z,0.90
2018-08-06T15:40:37.688Z,0.90
2018-08-06T15:43:07.002Z,1.00
2018-08-06T15:45:35.428Z,0.70
2018-08-06T15:48:03.839Z,0.90
2018-08-06T15:50:32.356Z,1.00
2018-08-06T15:53:00.824Z,0.80
2018-08-06T15:55:29.456Z,0.90
2018-08-06T15:57:57.918Z,0.75
2018-08-06T16:00:26.404Z,0.90
2018-08-06T16:02:54.853Z,0.85
2018-08-06T16:05:23.856Z,0.70
2018-08-06T16:07:52.334Z,0.78
2018-08-06T16:10:20.779Z,0.80
2018-08-06T16:12:49.232Z,0.78
2018-08-06T16:15:18.456Z,0.90
2018-08-06T16:17:46.885Z,1.20
2018-08-06T16:20:17.570Z,2.80
2018-08-06T16:22:46.136Z,0.80
2018-08-06T16:25:14.837Z,1.10
2018-08-06T16:27:43.404Z,0.70
2018-08-06T16:30:22.354Z,0.80
2018-08-06T16:32:50.925Z,0.80
2018-08-06T16:35:21.161Z,0.95
2018-08-06T16:37:50.380Z,0.75
2018-08-06T16:40:18.868Z,0.88
2018-08-06T16:42:48.138Z,0.80
2018-08-06T16:58:16.721Z,0.88
2018-08-06T17:00:46.068Z,0.90
2018-08-06T17:03:18.429Z,0.60
2018-08-06T17:05:47.657Z,1.10
2018-08-06T17:08:16.134Z,1.30
2018-08-06T17:10:45.654Z,1.17
2018-08-06T17:13:14.135Z,1.70
2018-08-06T17:15:42.856Z,2.62
2018-08-06T17:18:11.340Z,3.60
2018-08-06T17:20:39.867Z,2.00
2018-08-06T17:23:08.324Z,1.20
2018-08-06T17:25:37.381Z,1.30
2018-08-06T17:28:12.059Z,1.60
2018-08-06T17:30:40.568Z,2.00
2018-08-06T17:33:09.109Z,1.50
2018-08-06T17:35:37.600Z,1.40
2018-08-06T17:38:06.163Z,1.40
2018-08-06T17:40:35.008Z,1.42
2018-08-06T17:43:03.535Z,1.70
2018-08-06T17:45:32.022Z,1.47
2018-08-06T17:48:00.232Z,1.30
2018-08-06T17:50:28.809Z,1.20
2018-08-06T17:52:58.134Z,1.30
2018-08-06T17:55:26.591Z,1.35
2018-08-06T17:57:55.173Z,1.57
2018-08-06T18:00:23.716Z,1.77
2018-08-06T18:02:52.289Z,1.40
2018-08-06T18:05:20.943Z,2.10
2018-08-06T18:07:50.014Z,1.57
2018-08-06T18:10:18.910Z,1.65
2018-08-06T18:12:48.823Z,1.65
2018-08-06T18:15:17.298Z,1.67
2018-08-06T18:17:50.929Z,1.70
2018-08-06T18:20:19.881Z,1.52
2018-08-06T18:22:48.674Z,1.45
2018-08-06T18:25:18.483Z,1.50
2018-08-06T18:27:47.970Z,1.37
2018-08-06T18:30:18.281Z,12.13
2018-08-06T18:32:46.969Z,8.13
2018-08-06T18:35:20.289Z,7.87
2018-08-06T18:37:49.257Z,2.12
2018-08-06T18:40:19.076Z,1.40
2018-08-06T18:42:53.009Z,1.30
2018-08-06T18:45:22.204Z,1.30
2018-08-06T18:47:52.330Z,1.10
2018-08-06T18:50:20.760Z,1.30
2018-08-06T18:52:49.788Z,1.50
2018-08-06T18:55:18.567Z,1.70
2018-08-06T18:57:47.801Z,1.85
2018-08-06T19:00:18.731Z,1.80
2018-08-06T19:02:47.370Z,1.35
2018-08-06T19:05:21.153Z,1.40
2018-08-06T19:07:50.080Z,1.42
2018-08-06T19:10:18.637Z,1.42
2018-08-06T19:12:53.187Z,1.45
2018-08-06T19:15:21.626Z,1.57
2018-08-06T19:17:55.454Z,1.77
2018-08-06T19:20:23.930Z,1.65
2018-08-06T19:22:52.498Z,1.30
2018-08-06T19:25:25.286Z,1.50
2018-08-06T19:27:56.543Z,1.30
2018-08-06T19:30:31.137Z,1.60
2018-08-06T19:33:00.358Z,1.60
2018-08-06T19:35:29.854Z,1.47
2018-08-06T19:37:58.430Z,1.57
2018-08-06T19:40:26.886Z,1.57
2018-08-06T19:43:00.541Z,1.75
2018-08-06T19:45:29.004Z,1.60
2018-08-06T19:47:57.505Z,1.30
2018-08-06T19:50:31.139Z,1.55
2018-08-06T19:52:59.604Z,1.40
2018-08-06T19:55:33.332Z,1.40
2018-08-06T19:58:01.829Z,2.40
2018-08-06T20:00:30.286Z,2.00
2018-08-06T20:02:58.809Z,2.55
2018-08-06T20:05:27.363Z,1.30
2018-08-06T20:07:55.829Z,1.30
2018-08-06T20:10:24.338Z,1.55
2018-08-06T20:12:52.813Z,1.20
2018-08-06T20:15:21.256Z,1.47
2018-08-06T20:17:50.227Z,1.30
2018-08-06T20:20:18.636Z,1.40
2018-08-06T20:22:47.157Z,1.35
2018-08-06T20:25:17.848Z,1.47
2018-08-06T20:27:47.380Z,4.12
2018-08-06T20:30:17.569Z,1.57
2018-08-06T20:32:46.081Z,1.55
2018-08-06T20:35:15.983Z,1.45
2018-08-06T20:37:44.495Z,1.15
2018-08-06T20:40:13.033Z,1.67
2018-08-06T20:42:42.780Z,1.20
2018-08-06T20:45:13.382Z,1.50
2018-08-06T20:47:42.903Z,1.40
2018-08-06T20:50:14.261Z,1.35
2018-08-06T20:52:42.787Z,1.40
2018-08-06T20:55:12.584Z,2.60
2018-08-06T20:57:41.553Z,1.55
2018-08-06T21:00:17.425Z,1.42
2018-08-06T21:02:46.257Z,1.40
2018-08-06T21:05:14.744Z,1.50
2018-08-06T21:07:43.205Z,1.30
2018-08-06T21:10:13.653Z,1.40
2018-08-06T21:12:42.035Z,1.30
2018-08-06T21:15:11.782Z,1.50
2018-08-06T21:17:40.327Z,1.82
2018-08-06T21:20:10.992Z,1.60
2018-08-06T21:22:39.551Z,1.50
2018-08-06T21:25:09.597Z,8.35
2018-08-06T21:27:38.587Z,1.70
2018-08-06T21:30:09.845Z,1.30
2018-08-06T21:32:38.328Z,1.55
2018-08-06T21:35:07.000Z,1.40
2018-08-06T21:37:35.538Z,1.40
2018-08-06T21:40:04.017Z,1.30
2018-08-06T21:42:32.541Z,1.80
2018-08-06T21:45:01.008Z,1.50
2018-08-06T21:47:29.550Z,1.80
2018-08-06T21:49:57.985Z,1.72
2018-08-06T21:52:26.449Z,1.50
2018-08-06T21:54:55.227Z,1.45
2018-08-06T21:57:23.696Z,1.40
2018-08-06T21:59:52.219Z,2.70
2018-08-06T22:02:20.776Z,1.67
2018-08-06T22:04:55.874Z,1.50
2018-08-06T22:07:24.380Z,1.45
2018-08-06T22:09:52.849Z,1.60
2018-08-06T22:12:21.345Z,1.92
2018-08-06T22:14:51.180Z,1.40
2018-08-06T22:17:20.305Z,1.40
2018-08-06T22:19:48.800Z,1.57
2018-08-06T22:22:17.221Z,1.30
2018-08-06T22:24:45.703Z,1.50
2018-08-06T22:27:14.134Z,1.55
2018-08-06T22:29:42.615Z,1.72
2018-08-06T22:32:11.072Z,1.50
2018-08-06T22:34:39.591Z,1.72
2018-08-06T22:37:08.029Z,1.40
2018-08-06T22:39:36.558Z,1.40
2018-08-06T22:42:05.268Z,1.72
2018-08-06T22:44:33.720Z,1.45
2018-08-06T22:47:02.196Z,1.55
2018-08-06T22:49:30.657Z,1.50
2018-08-06T22:51:59.103Z,1.55
2018-08-06T22:54:27.544Z,1.80
2018-08-06T22:56:56.017Z,1.70
2018-08-06T22:59:25.084Z,1.50
2018-08-06T23:01:53.608Z,1.42
2018-08-06T23:04:22.021Z,1.70
2018-08-06T23:06:50.564Z,1.62
2018-08-06T23:09:19.065Z,1.67
2018-08-06T23:11:47.649Z,1.50
2018-08-06T23:14:16.105Z,1.60
2018-08-06T23:16:44.697Z,1.35
2018-08-06T23:19:13.124Z,1.50
2018-08-06T23:21:41.587Z,1.50
2018-08-06T23:24:10.045Z,1.40
2018-08-06T23:26:38.989Z,1.50
2018-08-06T23:29:07.420Z,1.80
2018-08-06T23:31:35.869Z,1.55
2018-08-06T23:34:04.357Z,1.62
2018-08-06T23:36:32.772Z,1.87
2018-08-06T23:39:01.213Z,1.60
2018-08-06T23:41:29.817Z,1.85
2018-08-06T23:43:58.232Z,2.30
2018-08-06T23:46:26.797Z,1.60
2018-08-06T23:48:55.862Z,1.60
2018-08-06T23:51:25.061Z,1.40
2018-08-06T23:53:53.522Z,1.55
2018-08-06T23:56:22.058Z,1.60
2018-08-06T23:58:50.451Z,1.50
